createdAt,value
2019-03-29T00:02:41.326Z,103.10
2019-03-29T00:05:31.094Z,179.30
2019-03-29T00:08:20.345Z,137.73
2019-03-29T00:10:59.519Z,102.93
2019-03-29T00:13:47.927Z,93.20
2019-03-29T00:16:34.764Z,95.03
2019-03-29T00:19:19.279Z,83.60
2019-03-29T00:22:01.064Z,97.20
2019-03-29T00:24:44.234Z,91.20
2019-03-29T00:27:32.684Z,102.67
2019-03-29T00:30:25.902Z,86.70
2019-03-29T00:33:14.395Z,86.43
2019-03-29T00:36:10.620Z,88.47
2019-03-29T00:39:00.367Z,74.27
2019-03-29T00:41:42.272Z,94.23
2019-03-29T00:44:45.142Z,88.87
2019-03-29T00:47:25.735Z,97.43
2019-03-29T00:50:07.735Z,88.27
2019-03-29T00:52:51.957Z,94.53
2019-03-29T00:55:42.451Z,93.33
2019-03-29T00:58:22.856Z,87.70
2019-03-29T01:01:06.158Z,95.27
2019-03-29T01:03:50.980Z,94.00
2019-03-29T01:06:36.275Z,90.97
2019-03-29T01:09:24.830Z,101.33
2019-03-29T01:12:08.895Z,97.90
2019-03-29T01:14:55.004Z,96.10
2019-03-29T01:17:38.482Z,89.47
2019-03-29T01:20:25.363Z,101.67
2019-03-29T01:23:19.167Z,92.17
2019-03-29T01:26:05.774Z,99.97
2019-03-29T01:28:58.263Z,93.13
2019-03-29T01:31:40.217Z,92.50
2019-03-29T01:34:26.325Z,78.03
2019-03-29T01:37:09.034Z,77.70
2019-03-29T01:39:52.087Z,93.40
2019-03-29T01:42:39.667Z,83.00
2019-03-29T01:45:21.121Z,85.40
2019-03-29T01:48:01.120Z,73.63
2019-03-29T01:50:44.919Z,92.13
2019-03-29T01:53:34.400Z,92.27
2019-03-29T01:56:21.331Z,106.17
2019-03-29T01:59:17.289Z,80.47
2019-03-29T02:02:00.542Z,108.37
2019-03-29T02:04:41.819Z,96.13
2019-03-29T02:07:27.349Z,89.33
2019-03-29T02:10:23.542Z,89.05
2019-03-29T02:13:29.710Z,77.00
2019-03-29T02:16:10.450Z,163.70
2019-03-29T02:18:57.134Z,100.67
2019-03-29T02:21:48.452Z,97.93
2019-03-29T02:24:45.915Z,84.80
2019-03-29T02:27:31.231Z,104.43
2019-03-29T02:30:09.139Z,98.90
2019-03-29T02:32:47.746Z,99.23
2019-03-29T02:35:29.256Z,94.60
2019-03-29T02:38:13.377Z,90.80
2019-03-29T02:40:58.969Z,94.17
2019-03-29T02:43:41.798Z,91.10
2019-03-29T02:46:30.544Z,104.03
2019-03-29T02:49:13.189Z,99.90
2019-03-29T02:51:59.985Z,81.77
2019-03-29T02:54:43.203Z,81.60
2019-03-29T02:57:28.167Z,85.10
2019-03-29T03:00:08.878Z,84.77
2019-03-29T03:02:54.055Z,80.20
2019-03-29T03:05:35.999Z,77.10
2019-03-29T03:08:21.779Z,84.53
2019-03-29T03:11:12.754Z,96.23
2019-03-29T03:13:53.990Z,92.53
2019-03-29T03:16:36.514Z,87.60
2019-03-29T03:19:21.649Z,93.07
2019-03-29T03:22:08.266Z,124.63
2019-03-29T03:24:50.838Z,116.27
2019-03-29T03:27:40.582Z,109.05
2019-03-29T03:30:23.037Z,96.13
2019-03-29T03:33:03.221Z,103.73
2019-03-29T03:35:48.646Z,89.33
2019-03-29T03:38:29.212Z,79.23
2019-03-29T03:41:20.011Z,92.80
2019-03-29T03:44:04.123Z,95.30
2019-03-29T03:46:49.369Z,94.13
2019-03-29T03:49:36.483Z,84.73
2019-03-29T03:52:23.349Z,130.10
2019-03-29T03:55:05.000Z,183.67
2019-03-29T03:58:00.201Z,150.10
2019-03-29T04:01:12.339Z,244.68
2019-03-29T04:03:52.428Z,108.60
2019-03-29T04:06:55.862Z,121.10
2019-03-29T04:09:51.628Z,127.50
2019-03-29T04:12:58.045Z,109.20
2019-03-29T04:15:41.262Z,252.00
2019-03-29T04:18:31.686Z,132.90
2019-03-29T04:21:14.033Z,141.30
2019-03-29T04:24:07.505Z,173.43
2019-03-29T04:26:52.709Z,130.97
2019-03-29T04:29:36.297Z,247.10
2019-03-29T04:32:21.114Z,156.25
2019-03-29T04:35:09.586Z,117.07
2019-03-29T04:38:16.572Z,121.57
2019-03-29T04:41:06.912Z,116.33
2019-03-29T04:44:32.438Z,114.17
2019-03-29T04:47:30.112Z,135.40
2019-03-29T04:50:13.241Z,136.87
2019-03-29T04:52:55.813Z,327.67
2019-03-29T04:55:39.445Z,146.70
2019-03-29T04:58:24.314Z,196.07
2019-03-29T05:01:59.863Z,163.33
2019-03-29T05:05:06.196Z,145.27
2019-03-29T05:07:52.664Z,171.90
2019-03-29T05:10:42.368Z,112.63
2019-03-29T05:13:47.229Z,97.53
2019-03-29T05:16:41.602Z,91.03
2019-03-29T05:19:31.828Z,86.57
2019-03-29T05:22:15.420Z,85.53
2019-03-29T05:25:06.915Z,146.50
2019-03-29T05:27:56.475Z,112.27
2019-03-29T05:30:47.910Z,103.80
2019-03-29T05:33:31.400Z,97.63
2019-03-29T05:36:32.456Z,86.03
2019-03-29T05:39:18.152Z,91.22
2019-03-29T05:42:20.030Z,73.70
2019-03-29T05:45:25.312Z,68.07
2019-03-29T05:48:13.739Z,75.17
2019-03-29T05:50:58.015Z,90.60
2019-03-29T05:53:51.153Z,64.77
2019-03-29T05:56:39.719Z,61.47
2019-03-29T05:59:29.236Z,64.33
2019-03-29T06:02:29.939Z,70.70
2019-03-29T06:05:21.280Z,88.67
2019-03-29T06:08:12.439Z,69.47
2019-03-29T06:10:54.350Z,74.47
2019-03-29T06:13:42.434Z,73.53
2019-03-29T06:16:56.652Z,59.73
2019-03-29T06:19:38.773Z,58.80
2019-03-29T06:22:23.958Z,60.57
2019-03-29T06:25:24.725Z,61.27
2019-03-29T06:28:05.732Z,57.13
2019-03-29T06:31:05.111Z,61.77
2019-03-29T06:33:49.597Z,56.20
2019-03-29T06:36:44.696Z,56.10
2019-03-29T06:39:33.249Z,64.13
2019-03-29T06:42:21.919Z,63.17
2019-03-29T06:45:08.474Z,57.13
2019-03-29T06:48:02.331Z,58.07
2019-03-29T06:50:51.798Z,56.03
2019-03-29T06:53:52.628Z,53.80
2019-03-29T06:56:56.065Z,61.03
2019-03-29T06:59:49.818Z,66.67
2019-03-29T07:03:04.538Z,53.90
2019-03-29T07:05:49.145Z,50.50
2019-03-29T07:08:52.995Z,62.60
2019-03-29T07:11:39.769Z,48.57
2019-03-29T07:14:32.717Z,51.20
2019-03-29T07:17:26.151Z,52.00
2019-03-29T07:20:19.111Z,49.90
2019-03-29T07:23:19.067Z,42.93
2019-03-29T07:26:06.721Z,51.07
2019-03-29T07:28:54.185Z,41.43
2019-03-29T07:31:43.434Z,48.90
2019-03-29T07:34:42.288Z,53.20
2019-03-29T07:37:32.668Z,47.07
2019-03-29T07:40:28.696Z,50.08
2019-03-29T07:43:23.990Z,45.83
2019-03-29T07:46:09.181Z,43.87
2019-03-29T07:49:26.240Z,52.77
2019-03-29T07:52:28.317Z,52.00
2019-03-29T07:55:14.650Z,51.60
2019-03-29T07:57:57.882Z,54.57
2019-03-29T08:01:32.406Z,55.07
2019-03-29T08:04:21.738Z,49.50
2019-03-29T08:07:27.529Z,49.90
2019-03-29T08:10:23.622Z,53.47
2019-03-29T08:13:09.812Z,64.33
2019-03-29T08:16:06.583Z,54.80
2019-03-29T08:18:49.490Z,51.27
2019-03-29T08:21:57.705Z,47.43
2019-03-29T08:24:46.169Z,49.20
2019-03-29T08:27:41.330Z,50.47
2019-03-29T08:30:29.887Z,47.37
2019-03-29T08:33:12.514Z,55.33
2019-03-29T08:35:59.344Z,47.57
2019-03-29T08:38:46.628Z,43.30
2019-03-29T08:41:27.463Z,47.93
2019-03-29T08:44:13.051Z,48.40
2019-03-29T08:46:57.893Z,49.53
2019-03-29T08:49:59.782Z,49.73
2019-03-29T08:52:45.927Z,54.80
2019-03-29T08:55:27.891Z,40.27
2019-03-29T08:58:13.239Z,43.73
2019-03-29T09:01:19.594Z,43.10
2019-03-29T09:04:06.448Z,44.17
2019-03-29T09:06:54.423Z,40.47
2019-03-29T09:09:36.480Z,47.23
2019-03-29T09:12:32.358Z,59.63
2019-03-29T09:15:22.369Z,46.50
2019-03-29T09:18:15.211Z,66.47
2019-03-29T09:21:09.115Z,68.17
2019-03-29T09:23:58.667Z,64.27
2019-03-29T09:26:41.646Z,51.80
2019-03-29T09:29:25.548Z,63.13
2019-03-29T09:32:19.862Z,69.70
2019-03-29T09:35:07.950Z,64.63
2019-03-29T09:37:52.479Z,55.97
2019-03-29T09:40:39.620Z,53.63
2019-03-29T09:43:29.867Z,51.20
2019-03-29T09:46:13.272Z,60.40
2019-03-29T09:49:22.774Z,54.83
2019-03-29T09:52:02.326Z,47.80
2019-03-29T09:54:46.295Z,51.90
2019-03-29T09:57:37.215Z,54.87
2019-03-29T10:00:22.997Z,48.30
2019-03-29T10:03:16.238Z,46.30
2019-03-29T10:06:18.892Z,44.27
2019-03-29T10:09:00.543Z,44.33
2019-03-29T10:11:58.416Z,41.80
2019-03-29T10:14:42.207Z,49.83
2019-03-29T10:17:24.981Z,43.67
2019-03-29T10:20:16.891Z,50.25
2019-03-29T10:23:40.247Z,100.63
2019-03-29T10:26:32.058Z,73.33
2019-03-29T10:29:36.785Z,73.13
2019-03-29T10:32:25.142Z,63.83
2019-03-29T10:35:19.000Z,78.17
2019-03-29T10:38:09.170Z,85.97
2019-03-29T10:41:04.701Z,92.87
2019-03-29T10:43:51.183Z,73.13
2019-03-29T10:46:39.274Z,82.90
2019-03-29T10:49:28.348Z,89.00
2019-03-29T10:52:18.265Z,105.03
2019-03-29T10:55:09.035Z,212.83
2019-03-29T10:58:09.833Z,128.80
2019-03-29T11:01:14.595Z,107.57
2019-03-29T11:04:09.807Z,90.23
2019-03-29T11:16:27.651Z,95.67
2019-03-29T11:19:21.213Z,91.57
2019-03-29T11:22:03.028Z,101.13
2019-03-29T11:27:53.759Z,104.47
2019-03-29T11:30:42.758Z,109.10
2019-03-29T11:33:33.950Z,135.53
2019-03-29T11:36:17.364Z,104.43
2019-03-29T11:39:06.219Z,109.43
2019-03-29T11:45:35.676Z,68.73
2019-03-29T11:48:19.974Z,84.10
2019-03-29T11:51:19.756Z,73.70
2019-03-29T11:54:04.462Z,78.30
2019-03-29T11:56:49.217Z,224.67
2019-03-29T11:59:33.170Z,584.90
2019-03-29T12:02:31.468Z,332.77
2019-03-29T12:05:30.861Z,509.43
2019-03-29T12:08:26.109Z,210.97
2019-03-29T12:11:26.135Z,133.03
2019-03-29T12:14:36.215Z,161.17
2019-03-29T12:17:56.224Z,155.87
2019-03-29T12:20:56.497Z,127.20
2019-03-29T12:23:46.030Z,141.27
2019-03-29T12:26:38.569Z,196.80
2019-03-29T12:29:46.543Z,213.03
2019-03-29T12:32:50.224Z,135.73
2019-03-29T12:36:17.388Z,115.63
2019-03-29T12:39:07.782Z,115.23
2019-03-29T12:45:30.163Z,119.73
2019-03-29T12:48:18.464Z,114.27
2019-03-29T12:51:34.538Z,139.50
2019-03-29T12:54:58.094Z,114.03
2019-03-29T12:57:44.810Z,91.90
2019-03-29T13:04:28.739Z,92.23
2019-03-29T13:07:53.400Z,93.10
2019-03-29T13:10:42.363Z,100.77
2019-03-29T13:13:42.451Z,121.50
2019-03-29T13:17:12.376Z,106.50
2019-03-29T13:20:26.642Z,92.30
2019-03-29T13:23:26.803Z,87.60
2019-03-29T13:26:36.493Z,100.67
2019-03-29T13:29:35.825Z,96.50
2019-03-29T13:36:15.881Z,99.80
2019-03-29T13:39:01.644Z,89.57
2019-03-29T13:42:06.119Z,91.77
2019-03-29T13:48:44.245Z,74.57
2019-03-29T13:52:03.715Z,77.70
2019-03-29T13:55:37.305Z,91.23
2019-03-29T13:58:43.222Z,75.87
2019-03-29T14:02:02.836Z,78.83
2019-03-29T14:04:51.106Z,100.65
2019-03-29T14:08:05.826Z,85.77
2019-03-29T14:11:03.576Z,89.00
2019-03-29T14:14:11.218Z,82.07
2019-03-29T14:17:36.871Z,100.80
2019-03-29T14:21:15.871Z,97.00
2019-03-29T14:24:35.418Z,85.63
2019-03-29T14:27:47.235Z,83.73
2019-03-29T14:31:20.989Z,85.40
2019-03-29T14:34:58.569Z,82.07
2019-03-29T14:38:17.830Z,101.50
2019-03-29T14:41:46.053Z,81.37
2019-03-29T14:44:52.598Z,83.40
2019-03-29T14:47:43.963Z,99.03
2019-03-29T14:50:53.848Z,94.33
2019-03-29T14:57:47.022Z,92.60
2019-03-29T15:00:57.317Z,93.80
2019-03-29T15:04:22.359Z,102.42
2019-03-29T15:07:38.342Z,107.80
2019-03-29T15:10:39.278Z,103.00
2019-03-29T15:14:06.518Z,94.90
2019-03-29T15:17:24.216Z,87.83
2019-03-29T15:20:52.686Z,88.80
2019-03-29T15:24:08.569Z,96.73
2019-03-29T15:27:25.082Z,87.83
2019-03-29T15:30:24.516Z,98.93
2019-03-29T15:33:51.552Z,96.30
2019-03-29T15:40:06.233Z,125.33
2019-03-29T15:43:06.186Z,199.62
2019-03-29T15:46:03.502Z,237.17
2019-03-29T15:49:19.754Z,161.87
2019-03-29T15:55:48.633Z,113.43
2019-03-29T15:58:52.878Z,106.10
2019-03-29T16:02:00.072Z,105.80
2019-03-29T16:05:22.359Z,91.73
2019-03-29T16:08:30.418Z,109.23
2019-03-29T16:11:23.869Z,401.07
2019-03-29T16:14:13.840Z,288.93
2019-03-29T16:17:21.744Z,185.07
2019-03-29T16:20:14.403Z,140.60
2019-03-29T16:23:08.102Z,142.00
2019-03-29T16:26:06.536Z,114.00
2019-03-29T16:29:10.352Z,122.23
2019-03-29T16:32:21.517Z,247.40
2019-03-29T16:35:22.643Z,205.97
2019-03-29T16:38:35.080Z,142.80
2019-03-29T16:41:44.750Z,130.70
2019-03-29T16:44:35.994Z,110.83
2019-03-29T16:47:56.483Z,113.80
2019-03-29T16:51:05.374Z,121.87
2019-03-29T16:54:09.396Z,113.27
2019-03-29T16:56:54.392Z,123.93
2019-03-29T17:00:00.783Z,132.93
2019-03-29T17:03:06.726Z,114.70
2019-03-29T17:06:36.761Z,128.00
2019-03-29T17:09:22.048Z,130.47
2019-03-29T17:12:12.411Z,128.53
2019-03-29T17:14:58.046Z,133.60
2019-03-29T17:17:45.121Z,122.33
2019-03-29T17:20:34.583Z,124.70
2019-03-29T17:23:35.426Z,133.43
2019-03-29T17:26:28.024Z,152.25
2019-03-29T17:29:14.537Z,146.47
2019-03-29T17:31:59.324Z,157.23
2019-03-29T17:34:54.434Z,150.33
2019-03-29T17:37:37.056Z,134.87
2019-03-29T17:40:19.308Z,138.13
2019-03-29T17:43:02.393Z,143.53
2019-03-29T17:45:41.743Z,146.13
2019-03-29T17:48:23.922Z,144.73
2019-03-29T17:51:17.512Z,144.10
2019-03-29T17:53:55.678Z,146.90
2019-03-29T17:56:37.040Z,136.17
2019-03-29T17:59:25.588Z,161.22
2019-03-29T18:02:14.762Z,149.80
2019-03-29T18:05:06.885Z,136.47
2019-03-29T18:07:48.695Z,151.50
2019-03-29T18:10:29.696Z,137.37
2019-03-29T18:13:25.202Z,149.73
2019-03-29T18:16:11.386Z,145.57
2019-03-29T18:18:52.702Z,141.03
2019-03-29T18:21:40.348Z,140.60
2019-03-29T18:24:21.812Z,142.93
2019-03-29T18:27:05.109Z,144.93
2019-03-29T18:32:42.547Z,138.77
2019-03-29T18:35:25.501Z,150.60
2019-03-29T18:38:24.876Z,138.27
2019-03-29T18:41:09.572Z,143.90
2019-03-29T18:43:52.357Z,133.33
2019-03-29T18:46:44.552Z,142.17
2019-03-29T18:49:17.901Z,153.87
2019-03-29T18:51:58.085Z,143.93
2019-03-29T18:54:49.534Z,159.90
2019-03-29T18:57:32.345Z,136.40
2019-03-29T19:00:21.785Z,152.97
2019-03-29T19:03:11.885Z,132.20
2019-03-29T19:05:54.386Z,143.43
2019-03-29T19:08:42.027Z,135.40
2019-03-29T19:11:18.791Z,138.93
2019-03-29T19:14:12.914Z,145.77
2019-03-29T19:16:59.127Z,151.87
2019-03-29T19:19:39.876Z,148.60
2019-03-29T19:22:22.398Z,143.37
2019-03-29T19:25:08.249Z,129.70
2019-03-29T19:27:49.193Z,138.90
2019-03-29T19:30:31.051Z,142.07
2019-03-29T19:33:11.504Z,140.50
2019-03-29T19:35:52.812Z,152.57
2019-03-29T19:38:33.421Z,139.93
2019-03-29T19:41:14.464Z,146.60
2019-03-29T19:44:06.562Z,144.50
2019-03-29T19:46:51.784Z,154.40
2019-03-29T19:49:37.175Z,141.33
2019-03-29T19:52:20.249Z,132.53
2019-03-29T19:55:05.381Z,127.13
2019-03-29T19:57:47.363Z,150.97
2019-03-29T20:00:49.551Z,133.00
2019-03-29T20:03:44.065Z,135.57
2019-03-29T20:06:25.855Z,147.13
2019-03-29T20:09:12.835Z,139.63
2019-03-29T20:11:59.758Z,138.67
2019-03-29T20:14:44.046Z,122.10
2019-03-29T20:17:27.665Z,126.03
2019-03-29T20:20:12.657Z,124.80
2019-03-29T20:22:54.596Z,115.73
2019-03-29T20:25:36.440Z,127.53
2019-03-29T20:28:21.022Z,107.43
2019-03-29T20:31:08.647Z,120.00
2019-03-29T20:33:49.989Z,113.20
2019-03-29T20:36:35.345Z,116.70
2019-03-29T20:39:15.120Z,110.23
2019-03-29T20:41:58.354Z,113.03
2019-03-29T20:44:37.521Z,98.27
2019-03-29T20:47:17.782Z,102.47
2019-03-29T20:49:57.242Z,114.80
2019-03-29T20:52:40.797Z,107.60
2019-03-29T20:55:24.309Z,102.13
2019-03-29T20:58:12.445Z,123.90
2019-03-29T21:00:54.239Z,98.87
2019-03-29T21:03:46.402Z,100.00
2019-03-29T21:06:28.163Z,104.67
2019-03-29T21:09:08.093Z,104.07
2019-03-29T21:11:51.984Z,100.53
2019-03-29T21:14:33.366Z,113.10
2019-03-29T21:17:16.530Z,107.90
2019-03-29T21:19:59.186Z,106.57
2019-03-29T21:22:44.440Z,107.17
2019-03-29T21:25:27.568Z,103.30
2019-03-29T21:28:07.152Z,107.77
2019-03-29T21:30:49.126Z,105.10
2019-03-29T21:33:32.174Z,107.20
2019-03-29T21:36:18.113Z,111.80
2019-03-29T21:38:57.227Z,114.57
2019-03-29T21:41:36.502Z,106.60
2019-03-29T21:44:20.090Z,109.50
2019-03-29T21:47:02.376Z,118.80
2019-03-29T21:49:47.619Z,112.50
2019-03-29T21:52:28.112Z,111.43
2019-03-29T21:55:08.404Z,119.97
2019-03-29T21:57:54.658Z,115.10
2019-03-29T22:00:43.827Z,113.57
2019-03-29T22:03:29.688Z,114.37
2019-03-29T22:06:07.202Z,107.93
2019-03-29T22:08:47.761Z,119.47
2019-03-29T22:11:32.275Z,121.47
2019-03-29T22:14:12.681Z,123.73
2019-03-29T22:16:54.332Z,111.73
2019-03-29T22:19:36.925Z,127.50
2019-03-29T22:22:22.185Z,130.10
2019-03-29T22:25:05.371Z,118.77
2019-03-29T22:27:52.579Z,129.27
2019-03-29T22:30:35.012Z,136.83
2019-03-29T22:33:22.938Z,147.23
2019-03-29T22:36:04.107Z,143.43
2019-03-29T22:38:44.050Z,156.77
2019-03-29T22:41:31.507Z,129.67
2019-03-29T22:44:13.599Z,127.03
2019-03-29T22:46:55.091Z,133.90
2019-03-29T22:49:34.015Z,134.40
2019-03-29T22:52:14.289Z,130.03
2019-03-29T22:54:58.336Z,132.97
2019-03-29T22:57:38.300Z,131.03
2019-03-29T23:00:23.511Z,117.73
2019-03-29T23:03:07.189Z,131.70
2019-03-29T23:05:53.688Z,136.23
2019-03-29T23:08:39.053Z,140.63
2019-03-29T23:11:25.188Z,128.07
2019-03-29T23:14:06.381Z,119.73
2019-03-29T23:16:45.419Z,125.87
2019-03-29T23:19:29.168Z,138.60
2019-03-29T23:22:12.401Z,124.57
2019-03-29T23:24:51.574Z,142.23
2019-03-29T23:27:31.524Z,119.73
2019-03-29T23:30:17.321Z,126.17
2019-03-29T23:33:01.200Z,131.43
2019-03-29T23:35:49.280Z,126.63
2019-03-29T23:38:32.622Z,114.30
2019-03-29T23:41:15.477Z,133.00
2019-03-29T23:47:03.386Z,134.57
2019-03-29T23:49:47.191Z,114.90
2019-03-29T23:52:42.632Z,105.10
2019-03-29T23:55:24.587Z,114.90
2019-03-29T23:58:11.223Z,103.13
